logo
App data

Neighborhorde

Neighborhorde is a couch co-op shoot-em-up where you and your team of friends use toys as weapons and game-changing superpowers to try to survive the attacks of evil robots and zombie Abe Lincolns.
Store | Hub | SteamDB | Site
Developer: Fermenter Games Publisher: Fermenter Games
Genre: Action, Indie
Languages: English
Tags: Action (36), Indie (33), Zombies (20), Survival (19), Local Co-Op (17), Co-op (17), 4 Player Local (17), Singleplayer (16), Rogue-lite (14), Arcade (14), Beat 'em up (13), Shooter (13), Hack and Slash (13), Stylized (12), Twin Stick Shooter (12), Difficult (12), Family Friendly (12), Cartoony (12), Funny (12), Cute (11)
Category: Single-player, Local Multi-Player, Co-op, Local Co-op, Shared/Split Screen, Steam Achievements, Full controller support, Steam Trading Cards
Release date: Jun 5, 2017
Price: $2.49 50%
Owners: 0 .. 20,000
Players (experimental): 4,233
Followers: 1,516
Peak concurrent players yesterday: 2
YouTube stats: 23 views and 0 comments for videos uploaded last week, 1 new videos uploaded yesterday.
Playtime total: 02:05 (average) 02:10 (median)

Steam Spy is still in beta, so expect major bugs.

Owners data:

Access restricted.

This feature is only available to users with special access rights. Sorry.

If you want to proceed, you need to register or log in first and then back Steam Spy on Patreon. Look for Indie or Pro pledge.

Don't forget to use the same email as on Steam Spy!

Audience in 2 weeks:

Access restricted.

This feature is only available to users with special access rights. Sorry.

If you want to proceed, you need to register or log in first and then back Steam Spy on Patreon. Look for Indie or Pro pledge.

Don't forget to use the same email as on Steam Spy!

Peak daily concurrent players:

CCU data courtesy of SteamDB. Used with permission.

Hourly concurrent players:

Daily Twitch stats:

Hourly Twitch stats:

YouTube:

The views data is based on top 50 videos uploaded last week. Actual number of views might be more than the number shown.

The displayed number of videos uploaded yesterday is limited to 50, so if there were more videos uploaded, the number will still show 50.

If the game has commonly used word as its name (like "FEAR" or "Volume") its number of Youtube views might be wrong.

Games similar to this one:

# Game Release date
Price
Score rank
(Userscore / Metascore)
Owners
Players
Playtime (Median)
1 Star Trek : 25th Anniversary May 7, 2015 $9.9990% (94%)0 .. 20,0000%00:00 (00:00)
2 Adventure in the Tower of Flight Dec 23, 2015 $1.9987% (93%)0 .. 20,0000%00:00 (00:00)
3 Knightmare Tower Jun 16, 2014 $0.9983% (92%)0 .. 20,0000%00:00 (00:00)
4 Spark the Electric Jester Apr 10, 2017 $7.4980% (91%)0 .. 20,0000%00:00 (00:00)
5 Fractured Soul Feb 5, 2015 $3.99N/A (N/A)0 .. 20,0000%00:00 (00:00)
6 Conga Master Sep 14, 2016 $2.49N/A (N/A)0 .. 20,0000%00:00 (00:00)
7 Hero of Many Sep 15, 2014 $6.9976% (90%)20,000 .. 50,0000%00:00 (00:00)
8 THE WALL 墙 Jul 17, 2017 $0.9970% (88%)0 .. 20,0000%00:00 (00:00)
9 N2O: Nitrous Oxide Jun 29, 2015 $4.99N/A (N/A)0 .. 20,0000%00:00 (00:00)
10 Asura: Vengeance Expansion Apr 13, 2017 $4.9965% (86%)0 .. 20,0006.67%01:57 (00:39)
11 Knight Squad Nov 16, 2015 $7.4965% (86%)50,000 .. 100,0000.61%00:01 (00:00)
12 Azure Striker Gunvolt Aug 28, 2015 $4.4962% (85%)20,000 .. 50,0000%00:00 (00:00)
13 Vintage Year Jan 2, 2015 $2.9962% (85%)20,000 .. 50,0000%00:00 (00:00)
14 Super Rad Raygun Nov 15, 2016 $1.99N/A (N/A/64%)0 .. 20,0000%00:00 (00:00)
15 Nongünz May 19, 2017 $6.9960% (84%)100,000 .. 200,0000.42%00:01 (00:00)
16 Isbarah Feb 25, 2015 $13.99N/A (N/A)20,000 .. 50,0004.76%04:04 (01:21)
17 Disney's Chicken Little Oct 20, 2005 $2.9957% (83%)0 .. 20,0000%00:00 (00:00)
18 Rosenkreuzstilette Feb 2, 2017 $5.9957% (83%)0 .. 20,0000%00:00 (00:00)
19 Fighties Jul 13, 2015 $2.4957% (83%)0 .. 20,0004.17%08:08 (02:42)
20 After The End: The Harvest Jun 2, 2017 $1.9955% (82%)20,000 .. 50,0000%00:00 (00:00)
21 LocoCycle Feb 14, 2014 $2.4950% (80%)0 .. 20,0000%00:00 (00:00)
22 Airport Madness: World Edition May 28, 2015 $4.9950% (80%)20,000 .. 50,0003.13%01:32 (00:30)
23 Blue Effect VR Feb 8, 2017 $7.4948% (79%)0 .. 20,0000%00:00 (00:00)
24 Not Dying Today Jan 13, 2017 $0.9946% (78%)0 .. 20,0000%00:00 (00:00)
25 Age of Barbarian Extended Cut Jun 3, 2016 $9.7446% (78%)0 .. 20,0009.09%00:01 (00:00)
26 Starchaser: Priestess of the Night Sky Jul 24, 2015 $3.29N/A (N/A)0 .. 20,0000%00:00 (00:00)
27 Left Alone Apr 28, 2016 $3.4945% (77%)0 .. 20,00014.29%01:30 (00:30)
28 Dyna Bomb May 13, 2016 $2.49N/A (N/A)0 .. 20,0000%00:00 (00:00)
29 Zero Reflex : Black Eye Edition Nov 4, 2015 $0.9941% (75%)20,000 .. 50,0000%00:00 (00:00)
30 Planet of Mubu Apr 1, 2017 $0.59N/A (N/A)20,000 .. 50,0000%00:00 (00:00)
31 BoxesWithGuns Dec 14, 2014 $1.9935% (72%)20,000 .. 50,0000%00:00 (00:00)
32 Aeon May 22, 2017 $5.9935% (72%)0 .. 20,0000%00:00 (00:00)
33 ABRACA - Imagic Games Mar 31, 2016 $14.99N/A (N/A)0 .. 20,0000%00:00 (00:00)
34 SAMURAI WARRIORS: Spirit of Sanada May 23, 2017 $34.9932% (70%)0 .. 20,00025%00:50 (00:16)
35 Tank Brawl Apr 20, 2016 $2.99N/A (N/A)0 .. 20,0000%00:00 (00:00)
36 The Girl and the Robot Aug 17, 2016 $5.99N/A (N/A)0 .. 20,0000%00:00 (00:00)
37 Toxic Bunny HD Jul 18, 2014 $5.99N/A (N/A)0 .. 20,0000%00:00 (00:00)
38 Spud's Quest Jul 31, 2014 $1.59N/A (N/A)0 .. 20,0000%00:00 (00:00)
39 Pixel-Warfare: Pro Sep 20, 2016 $0.9929% (68%)20,000 .. 50,0000%00:00 (00:00)
40 Demon Peak Jul 7, 2017 $2.4926% (66%)0 .. 20,0000%00:00 (00:00)
41 Dystopy Feb 28, 2017 FreeN/A (N/A)0 .. 20,0000%00:00 (00:00)
42 Phantaruk Aug 16, 2016 $1.4926% (66%/53%)20,000 .. 50,0001.23%00:06 (00:02)
43 BIOS Dec 13, 2016 $14.9925% (65%)0 .. 20,0000%00:00 (00:00)
44 Demon's Crystals Apr 21, 2016 $2.24N/A (N/A)0 .. 20,0000%00:00 (00:00)
45 Alpha Zylon Dec 19, 2007 $0.4923% (63%)20,000 .. 50,0000%00:00 (00:00)
46 Bombshell Jan 29, 2016 $34.9921% (62%)0 .. 20,0000%00:00 (00:00)
47 Disney Alice in Wonderland Mar 2, 2010 $5.9920% (61%/63%)0 .. 20,0000%00:00 (00:00)
48 Hybrid Wars Sep 29, 2016 $7.1918% (59%/54%)0 .. 20,0000%00:00 (00:00)
49 Shadowcrypt Jul 7, 2014 $2.4918% (59%)0 .. 20,0000%00:00 (00:00)
50 Fowl Space Mar 21, 2012 $4.9918% (59%)20,000 .. 50,0000%00:00 (00:00)
51 The Curse of Nordic Cove Apr 23, 2015 $0.49N/A (N/A)0 .. 20,0000%00:00 (00:00)
52 Disney Tangled Nov 19, 2010 $5.99N/A (N/A)0 .. 20,0000%00:00 (00:00)
53 Disney•Pixar Cars 2: The Video Game Jun 21, 2011 $5.9911% (50%)0 .. 20,0000%00:00 (00:00)
54 Plancon: Space Conflict Aug 8, 2016 $0.6911% (50%)20,000 .. 50,0000%00:00 (00:00)
55 #KILLALLZOMBIES Aug 10, 2016 $0.49N/A (N/A)20,000 .. 50,0001.03%00:01 (00:00)
56 Blasting Agent: Ultimate Edition Aug 17, 2016 $2.99N/A (N/A)0 .. 20,0000%00:00 (00:00)
57 Lost Sea Jul 5, 2016 $1.499% (46%)0 .. 20,0000%00:00 (00:00)
58 Infinium Strike Jul 14, 2016 $3.398% (45%)0 .. 20,0000%00:00 (00:00)
59 Red Goddess: Inner World Aug 31, 2015 $9.995% (37%/53%)0 .. 20,0000%00:00 (00:00)
60 Kick-Ass 2 Aug 15, 2014 $4.995% (36%)0 .. 20,0000%00:00 (00:00)
61 Disney Fairies: Tinker Bell's Adventure Oct 6, 2014 $5.99N/A (N/A)0 .. 20,0000%00:00 (00:00)
62 Masterspace Jun 15, 2015 $1.993% (27%)0 .. 20,0000%00:00 (00:00)
63 Monster Challenge Circus May 15, 2014 $0.74N/A (N/A)0 .. 20,0000%00:00 (00:00)
64 Deer Hunt Legends Jan 7, 2013 $1.69N/A (N/A)20,000 .. 50,0000%00:00 (00:00)

Owners of this game also own:

Access restricted.

This feature is only available to users with special access rights. Sorry.

If you want to proceed, you need to register or log in first and then back Steam Spy on Patreon. Look for Indie or Pro pledge.

Don't forget to use the same email as on Steam Spy!

Playtime distribution:

Access restricted.

This feature is only available to users with special access rights. Sorry.

If you want to proceed, you need to register or log in first and then back Steam Spy on Patreon. Look for Indie or Pro pledge.

Don't forget to use the same email as on Steam Spy!

Playtime (2 weeks):

Access restricted.

This feature is only available to users with special access rights. Sorry.

If you want to proceed, you need to register or log in first and then back Steam Spy on Patreon. Look for Indie or Pro pledge.

Don't forget to use the same email as on Steam Spy!

User reviews:

Login required.

Please register or log in to see this information.